sensor_id;sensor_type;location;lat;lon;timestamp;pressure;altitude;pressure_sealevel;temperature;humidity
61939;BME280;47897;50.322;18.892;2022-08-19T00:00:31;57629.64;;;-145.38;52.92
61939;BME280;47897;50.322;18.892;2022-08-19T00:02:58;57631.34;;;-145.38;53.01
61939;BME280;47897;50.322;18.892;2022-08-19T00:05:25;57628.36;;;-145.38;53.06
61939;BME280;47897;50.322;18.892;2022-08-19T00:07:52;57638.14;;;-145.38;53.17
61939;BME280;47897;50.322;18.892;2022-08-19T00:10:20;57634.74;;;-145.38;53.21
61939;BME280;47897;50.322;18.892;2022-08-19T00:12:47;57636.44;;;-145.38;53.28
61939;BME280;47897;50.322;18.892;2022-08-19T00:15:17;57636.01;;;-145.38;53.35
61939;BME280;47897;50.322;18.892;2022-08-19T00:17:45;57622.41;;;-145.38;53.42
61939;BME280;47897;50.322;18.892;2022-08-19T00:20:20;57631.34;;;-145.38;53.49
61939;BME280;47897;50.322;18.892;2022-08-19T00:22:48;57642.39;;;-145.38;53.62
61939;BME280;47897;50.322;18.892;2022-08-19T00:25:16;57639.41;;;-145.38;53.63
61939;BME280;47897;50.322;18.892;2022-08-19T00:27:43;57640.26;;;-145.38;53.67
61939;BME280;47897;50.322;18.892;2022-08-19T00:30:10;57636.86;;;-145.38;53.82
61939;BME280;47897;50.322;18.892;2022-08-19T00:32:38;57636.86;;;-145.38;53.84
61939;BME280;47897;50.322;18.892;2022-08-19T00:35:06;57633.89;;;-145.38;53.88
61939;BME280;47897;50.322;18.892;2022-08-19T00:37:33;57642.39;;;-145.38;53.96
61939;BME280;47897;50.322;18.892;2022-08-19T00:40:04;57638.14;;;-145.38;53.99
61939;BME280;47897;50.322;18.892;2022-08-19T00:42:31;57634.74;;;-145.38;54.09
61939;BME280;47897;50.322;18.892;2022-08-19T00:44:59;57636.44;;;-145.38;54.13
61939;BME280;47897;50.322;18.892;2022-08-19T00:47:26;57638.99;;;-145.38;54.19
61939;BME280;47897;50.322;18.892;2022-08-19T00:49:56;57656.41;;;-145.38;54.23
61939;BME280;47897;50.322;18.892;2022-08-19T00:52:28;57642.39;;;-145.38;54.27
61939;BME280;47897;50.322;18.892;2022-08-19T00:54:58;57632.61;;;-145.38;54.37
61939;BME280;47897;50.322;18.892;2022-08-19T00:57:55;57643.66;;;-145.38;54.38
61939;BME280;47897;50.322;18.892;2022-08-19T01:00:25;57640.26;;;-145.38;54.48
61939;BME280;47897;50.322;18.892;2022-08-19T01:02:53;57628.36;;;-145.38;54.49
61939;BME280;47897;50.322;18.892;2022-08-19T01:05:23;57640.26;;;-145.38;54.63
61939;BME280;47897;50.322;18.892;2022-08-19T01:07:56;57634.31;;;-145.38;54.75
61939;BME280;47897;50.322;18.892;2022-08-19T01:10:27;57623.26;;;-145.38;54.82
61939;BME280;47897;50.322;18.892;2022-08-19T01:12:55;57638.56;;;-145.38;54.95
61939;BME280;47897;50.322;18.892;2022-08-19T01:15:27;57638.14;;;-145.38;54.92
61939;BME280;47897;50.322;18.892;2022-08-19T01:17:57;57632.61;;;-145.38;55.03
61939;BME280;47897;50.322;18.892;2022-08-19T01:20:25;57636.86;;;-145.38;55.04
61939;BME280;47897;50.322;18.892;2022-08-19T01:22:56;57637.71;;;-145.38;55.17
61939;BME280;47897;50.322;18.892;2022-08-19T01:25:44;57650.03;;;-145.38;55.21
61939;BME280;47897;50.322;18.892;2022-08-19T01:28:23;57663.21;;;-145.38;55.33
61939;BME280;47897;50.322;18.892;2022-08-19T01:30:52;57627.95;;;-145.38;55.38
61939;BME280;47897;50.322;18.892;2022-08-19T01:33:21;57639.41;;;-145.38;55.30
61939;BME280;47897;50.322;18.892;2022-08-19T01:35:48;57636.01;;;-145.38;55.46
61939;BME280;47897;50.322;18.892;2022-08-19T01:38:23;57638.14;;;-145.38;55.47
61939;BME280;47897;50.322;18.892;2022-08-19T01:40:50;57638.56;;;-145.38;55.45
61939;BME280;47897;50.322;18.892;2022-08-19T01:43:17;57638.99;;;-145.38;55.50
61939;BME280;47897;50.322;18.892;2022-08-19T01:45:46;57654.28;;;-145.38;55.61
61939;BME280;47897;50.322;18.892;2022-08-19T01:48:13;57636.44;;;-145.38;55.72
61939;BME280;47897;50.322;18.892;2022-08-19T01:50:40;57638.99;;;-145.38;55.70
61939;BME280;47897;50.322;18.892;2022-08-19T01:53:10;57645.79;;;-145.38;55.77
61939;BME280;47897;50.322;18.892;2022-08-19T01:55:40;57625.39;;;-145.38;55.85
61939;BME280;47897;50.322;18.892;2022-08-19T01:58:43;57634.74;;;-145.38;55.84
61939;BME280;47897;50.322;18.892;2022-08-19T02:01:13;57649.18;;;-145.38;55.94
61939;BME280;47897;50.322;18.892;2022-08-19T02:03:40;57634.74;;;-145.38;55.96
61939;BME280;47897;50.322;18.892;2022-08-19T02:06:07;57644.94;;;-145.38;56.01
61939;BME280;47897;50.322;18.892;2022-08-19T02:08:36;57660.23;;;-145.38;56.06
61939;BME280;47897;50.322;18.892;2022-08-19T02:11:05;57651.31;;;-145.38;56.03
61939;BME280;47897;50.322;18.892;2022-08-19T02:13:33;57646.64;;;-145.38;56.14
61939;BME280;47897;50.322;18.892;2022-08-19T02:16:00;57651.73;;;-145.38;56.10
61939;BME280;47897;50.322;18.892;2022-08-19T02:18:28;57652.59;;;-145.38;56.21
61939;BME280;47897;50.322;18.892;2022-08-19T02:20:55;57633.04;;;-145.38;56.16
61939;BME280;47897;50.322;18.892;2022-08-19T02:23:22;57638.14;;;-145.38;56.24
61939;BME280;47897;50.322;18.892;2022-08-19T02:25:48;57645.36;;;-145.38;56.23
61939;BME280;47897;50.322;18.892;2022-08-19T02:28:15;57654.71;;;-145.38;56.25
61939;BME280;47897;50.322;18.892;2022-08-19T02:30:43;57641.11;;;-145.38;56.27
61939;BME280;47897;50.322;18.892;2022-08-19T02:33:09;57640.26;;;-145.38;56.35
61939;BME280;47897;50.322;18.892;2022-08-19T02:35:36;57648.76;;;-145.38;56.29
61939;BME280;47897;50.322;18.892;2022-08-19T02:38:03;57627.51;;;-145.38;56.35
61939;BME280;47897;50.322;18.892;2022-08-19T02:40:54;57634.31;;;-145.38;56.44
61939;BME280;47897;50.322;18.892;2022-08-19T02:43:22;57640.69;;;-145.38;56.40
61939;BME280;47897;50.322;18.892;2022-08-19T02:45:50;57633.46;;;-145.38;56.48
61939;BME280;47897;50.322;18.892;2022-08-19T02:48:22;57667.88;;;-145.38;56.47
61939;BME280;47897;50.322;18.892;2022-08-19T02:50:51;57651.73;;;-145.38;56.47
61939;BME280;47897;50.322;18.892;2022-08-19T02:53:23;57648.76;;;-145.38;56.57
61939;BME280;47897;50.322;18.892;2022-08-19T02:55:51;57636.86;;;-145.38;56.62
61939;BME280;47897;50.322;18.892;2022-08-19T02:58:18;57644.51;;;-145.38;56.75
61939;BME280;47897;50.322;18.892;2022-08-19T03:00:48;57647.06;;;-145.38;57.01
61939;BME280;47897;50.322;18.892;2022-08-19T03:03:17;57636.86;;;-145.38;57.41
61939;BME280;47897;50.322;18.892;2022-08-19T03:05:45;57633.89;;;-145.38;57.68
61939;BME280;47897;50.322;18.892;2022-08-19T03:08:13;57644.94;;;-145.38;57.64
61939;BME280;47897;50.322;18.892;2022-08-19T03:10:45;57648.76;;;-145.38;57.75
61939;BME280;47897;50.322;18.892;2022-08-19T03:13:15;57656.84;;;-145.38;57.85
61939;BME280;47897;50.322;18.892;2022-08-19T03:15:45;57641.54;;;-145.38;58.04
61939;BME280;47897;50.322;18.892;2022-08-19T03:18:13;57645.36;;;-145.38;57.90
61939;BME280;47897;50.322;18.892;2022-08-19T03:20:47;57656.83;;;-145.38;57.90
61939;BME280;47897;50.322;18.892;2022-08-19T03:23:16;57648.33;;;-145.38;57.99
61939;BME280;47897;50.322;18.892;2022-08-19T03:25:46;57635.59;;;-145.38;57.97
61939;BME280;47897;50.322;18.892;2022-08-19T03:28:14;57654.28;;;-145.38;58.00
61939;BME280;47897;50.322;18.892;2022-08-19T03:30:43;57649.19;;;-145.38;58.11
61939;BME280;47897;50.322;18.892;2022-08-19T03:33:22;57667.03;;;-145.38;58.10
61939;BME280;47897;50.322;18.892;2022-08-19T03:36:14;57647.91;;;-145.38;58.19
61939;BME280;47897;50.322;18.892;2022-08-19T03:38:47;57653.01;;;-145.38;58.33
61939;BME280;47897;50.322;18.892;2022-08-19T03:41:26;57647.05;;;-145.38;58.57
61939;BME280;47897;50.322;18.892;2022-08-19T03:43:54;57645.36;;;-145.38;58.55
61939;BME280;47897;50.322;18.892;2022-08-19T03:46:24;57647.49;;;-145.38;58.72
61939;BME280;47897;50.322;18.892;2022-08-19T03:48:54;57655.99;;;-145.38;58.77
61939;BME280;47897;50.322;18.892;2022-08-19T03:53:53;57651.31;;;-145.38;58.96
61939;BME280;47897;50.322;18.892;2022-08-19T03:56:21;57653.43;;;-145.38;59.07
61939;BME280;47897;50.322;18.892;2022-08-19T03:58:48;57655.98;;;-145.38;59.19
61939;BME280;47897;50.322;18.892;2022-08-19T04:01:18;57647.91;;;-145.38;59.17
61939;BME280;47897;50.322;18.892;2022-08-19T04:03:46;57650.04;;;-145.38;59.03
61939;BME280;47897;50.322;18.892;2022-08-19T04:08:44;57635.16;;;-145.38;58.85
61939;BME280;47897;50.322;18.892;2022-08-19T04:11:15;57665.76;;;-145.38;58.95
61939;BME280;47897;50.322;18.892;2022-08-19T04:13:43;57655.55;;;-145.38;59.03
61939;BME280;47897;50.322;18.892;2022-08-19T04:16:11;57646.21;;;-145.38;58.98
61939;BME280;47897;50.322;18.892;2022-08-19T04:18:39;57655.98;;;-145.38;59.17
61939;BME280;47897;50.322;18.892;2022-08-19T04:21:07;57644.09;;;-145.38;59.26
61939;BME280;47897;50.322;18.892;2022-08-19T04:23:35;57674.26;;;-145.38;59.35
61939;BME280;47897;50.322;18.892;2022-08-19T04:26:04;57655.13;;;-145.38;59.41
61939;BME280;47897;50.322;18.892;2022-08-19T04:28:31;57648.76;;;-145.38;59.46
61939;BME280;47897;50.322;18.892;2022-08-19T04:30:58;57643.24;;;-145.38;59.37
61939;BME280;47897;50.322;18.892;2022-08-19T04:33:25;57653.86;;;-145.38;59.23
61939;BME280;47897;50.322;18.892;2022-08-19T04:35:52;57650.46;;;-145.38;59.10
61939;BME280;47897;50.322;18.892;2022-08-19T04:38:21;57659.38;;;-145.38;59.06
61939;BME280;47897;50.322;18.892;2022-08-19T04:40:51;57652.58;;;-145.38;58.75
61939;BME280;47897;50.322;18.892;2022-08-19T04:43:38;57662.36;;;-145.38;58.65
61939;BME280;47897;50.322;18.892;2022-08-19T04:46:09;57653.86;;;-145.38;58.53
61939;BME280;47897;50.322;18.892;2022-08-19T04:48:38;57651.31;;;-145.38;58.38
61939;BME280;47897;50.322;18.892;2022-08-19T04:51:07;57658.11;;;-145.38;58.08
61939;BME280;47897;50.322;18.892;2022-08-19T04:53:37;57661.93;;;-145.38;57.94
61939;BME280;47897;50.322;18.892;2022-08-19T04:56:12;57652.16;;;-145.38;57.71
61939;BME280;47897;50.322;18.892;2022-08-19T04:58:41;57662.79;;;-145.38;57.56
61939;BME280;47897;50.322;18.892;2022-08-19T05:01:17;57661.93;;;-145.38;57.28
61939;BME280;47897;50.322;18.892;2022-08-19T05:03:44;57643.66;;;-145.38;57.01
61939;BME280;47897;50.322;18.892;2022-08-19T05:06:13;57643.24;;;-145.38;56.87
61939;BME280;47897;50.322;18.892;2022-08-19T05:08:41;57644.51;;;-145.38;56.66
61939;BME280;47897;50.322;18.892;2022-08-19T05:13:43;57656.41;;;-145.38;56.29
61939;BME280;47897;50.322;18.892;2022-08-19T05:16:12;57653.86;;;-145.38;56.20
61939;BME280;47897;50.322;18.892;2022-08-19T05:18:40;57644.93;;;-145.38;56.05
61939;BME280;47897;50.322;18.892;2022-08-19T05:21:26;57650.46;;;-145.38;55.94
61939;BME280;47897;50.322;18.892;2022-08-19T05:24:13;57632.19;;;-145.38;55.69
61939;BME280;47897;50.322;18.892;2022-08-19T05:26:46;57648.76;;;-145.38;55.54
61939;BME280;47897;50.322;18.892;2022-08-19T05:29:17;57647.49;;;-145.38;55.38
61939;BME280;47897;50.322;18.892;2022-08-19T05:31:47;57651.31;;;-145.38;55.11
61939;BME280;47897;50.322;18.892;2022-08-19T05:34:18;57667.03;;;-145.38;55.10
61939;BME280;47897;50.322;18.892;2022-08-19T05:36:47;57653.01;;;-145.38;54.95
61939;BME280;47897;50.322;18.892;2022-08-19T05:39:19;57653.44;;;-145.38;54.83
61939;BME280;47897;50.322;18.892;2022-08-19T05:41:49;57647.06;;;-145.38;54.72
61939;BME280;47897;50.322;18.892;2022-08-19T05:44:17;57651.74;;;-145.38;54.65
61939;BME280;47897;50.322;18.892;2022-08-19T05:46:44;57645.78;;;-145.38;54.58
61939;BME280;47897;50.322;18.892;2022-08-19T05:49:14;57630.91;;;-145.38;54.32
61939;BME280;47897;50.322;18.892;2022-08-19T05:51:42;57657.26;;;-145.38;54.32
61939;BME280;47897;50.322;18.892;2022-08-19T05:54:09;57644.51;;;-145.38;54.05
61939;BME280;47897;50.322;18.892;2022-08-19T05:56:41;57637.29;;;-145.38;53.87
61939;BME280;47897;50.322;18.892;2022-08-19T05:59:10;57654.28;;;-145.38;53.72
61939;BME280;47897;50.322;18.892;2022-08-19T06:01:39;57636.86;;;-145.38;53.67
61939;BME280;47897;50.322;18.892;2022-08-19T06:04:07;57655.56;;;-145.38;53.60
61939;BME280;47897;50.322;18.892;2022-08-19T06:06:35;57653.86;;;-145.38;53.52
61939;BME280;47897;50.322;18.892;2022-08-19T06:09:07;57645.36;;;-145.38;53.39
61939;BME280;47897;50.322;18.892;2022-08-19T06:11:41;57662.36;;;-145.38;53.25
61939;BME280;47897;50.322;18.892;2022-08-19T06:14:14;57628.79;;;-145.38;53.18
61939;BME280;47897;50.322;18.892;2022-08-19T06:16:42;57637.29;;;-145.38;53.14
61939;BME280;47897;50.322;18.892;2022-08-19T06:19:12;57629.64;;;-145.38;53.05
61939;BME280;47897;50.322;18.892;2022-08-19T06:21:42;57651.74;;;-145.38;52.99
61939;BME280;47897;50.322;18.892;2022-08-19T06:24:11;57638.14;;;-145.38;52.88
61939;BME280;47897;50.322;18.892;2022-08-19T06:26:42;57645.36;;;-145.38;52.80
61939;BME280;47897;50.322;18.892;2022-08-19T06:29:12;57650.89;;;-145.38;52.76
61939;BME280;47897;50.322;18.892;2022-08-19T06:31:45;57636.86;;;-145.38;52.70
61939;BME280;47897;50.322;18.892;2022-08-19T06:34:13;57644.51;;;-145.38;52.52
61939;BME280;47897;50.322;18.892;2022-08-19T06:36:43;57642.81;;;-145.38;52.41
61939;BME280;47897;50.322;18.892;2022-08-19T06:39:13;57648.76;;;-145.38;52.42
61939;BME280;47897;50.322;18.892;2022-08-19T06:41:44;57638.14;;;-145.38;52.39
61939;BME280;47897;50.322;18.892;2022-08-19T06:44:12;57643.66;;;-145.38;52.27
61939;BME280;47897;50.322;18.892;2022-08-19T06:46:40;57647.91;;;-145.38;52.20
61939;BME280;47897;50.322;18.892;2022-08-19T06:49:08;57645.36;;;-145.38;52.02
61939;BME280;47897;50.322;18.892;2022-08-19T06:51:42;57642.39;;;-145.38;51.92
61939;BME280;47897;50.322;18.892;2022-08-19T06:54:10;57644.93;;;-145.38;51.96
61939;BME280;47897;50.322;18.892;2022-08-19T06:56:38;57643.24;;;-145.38;52.02
61939;BME280;47897;50.322;18.892;2022-08-19T06:59:07;57645.79;;;-145.38;52.02
61939;BME280;47897;50.322;18.892;2022-08-19T07:01:37;57636.86;;;-145.38;52.08
61939;BME280;47897;50.322;18.892;2022-08-19T07:04:06;57651.31;;;-145.38;52.22
61939;BME280;47897;50.322;18.892;2022-08-19T07:06:34;57647.06;;;-145.38;52.19
61939;BME280;47897;50.322;18.892;2022-08-19T07:09:07;57641.11;;;-145.38;51.95
61939;BME280;47897;50.322;18.892;2022-08-19T07:11:34;57647.91;;;-145.38;51.76
61939;BME280;47897;50.322;18.892;2022-08-19T07:14:02;57640.69;;;-145.38;51.67
61939;BME280;47897;50.322;18.892;2022-08-19T07:16:29;57658.11;;;-145.38;51.60
61939;BME280;47897;50.322;18.892;2022-08-19T07:18:57;57638.14;;;-145.38;51.46
61939;BME280;47897;50.322;18.892;2022-08-19T07:21:26;57646.21;;;-145.38;51.54
61939;BME280;47897;50.322;18.892;2022-08-19T07:23:56;57648.76;;;-145.38;51.32
61939;BME280;47897;50.322;18.892;2022-08-19T07:26:27;57653.01;;;-145.38;51.39
61939;BME280;47897;50.322;18.892;2022-08-19T07:28:56;57616.89;;;-145.38;51.51
61939;BME280;47897;50.322;18.892;2022-08-19T07:31:26;57641.54;;;-145.38;51.41
61939;BME280;47897;50.322;18.892;2022-08-19T07:33:55;57645.36;;;-145.38;51.23
61939;BME280;47897;50.322;18.892;2022-08-19T07:36:28;57654.28;;;-145.38;51.33
61939;BME280;47897;50.322;18.892;2022-08-19T07:39:00;57654.28;;;-145.38;51.35
61939;BME280;47897;50.322;18.892;2022-08-19T07:41:30;57637.29;;;-145.38;51.36
61939;BME280;47897;50.322;18.892;2022-08-19T07:43:59;57643.66;;;-145.38;51.19
61939;BME280;47897;50.322;18.892;2022-08-19T07:46:31;57651.31;;;-145.38;51.31
61939;BME280;47897;50.322;18.892;2022-08-19T07:48:58;57649.61;;;-145.38;51.21
61939;BME280;47897;50.322;18.892;2022-08-19T07:51:28;57630.49;;;-145.38;51.01
61939;BME280;47897;50.322;18.892;2022-08-19T07:53:55;57647.91;;;-145.38;50.87
61939;BME280;47897;50.322;18.892;2022-08-19T07:56:22;57637.29;;;-145.38;50.63
61939;BME280;47897;50.322;18.892;2022-08-19T07:58:51;57647.91;;;-145.38;50.51
61939;BME280;47897;50.322;18.892;2022-08-19T08:01:24;57644.09;;;-145.38;50.46
61939;BME280;47897;50.322;18.892;2022-08-19T08:03:53;57641.96;;;-145.38;50.96
61939;BME280;47897;50.322;18.892;2022-08-19T08:06:38;57632.19;;;-145.38;51.19
61939;BME280;47897;50.322;18.892;2022-08-19T08:09:31;57643.23;;;-145.38;50.97
61939;BME280;47897;50.322;18.892;2022-08-19T08:12:02;57641.54;;;-145.38;50.92
61939;BME280;47897;50.322;18.892;2022-08-19T08:14:33;57627.09;;;-145.38;50.85
61939;BME280;47897;50.322;18.892;2022-08-19T08:17:03;57634.74;;;-145.38;50.52
61939;BME280;47897;50.322;18.892;2022-08-19T08:19:31;57648.76;;;-145.38;50.72
61939;BME280;47897;50.322;18.892;2022-08-19T08:22:00;57630.06;;;-145.38;50.77
61939;BME280;47897;50.322;18.892;2022-08-19T08:24:29;57642.39;;;-145.38;50.24
61939;BME280;47897;50.322;18.892;2022-08-19T08:27:01;57653.86;;;-145.38;49.58
61939;BME280;47897;50.322;18.892;2022-08-19T08:29:29;57635.59;;;-145.38;49.15
61939;BME280;47897;50.322;18.892;2022-08-19T08:31:57;57647.05;;;-145.38;48.67
61939;BME280;47897;50.322;18.892;2022-08-19T08:34:26;57621.56;;;-145.38;48.61
61939;BME280;47897;50.322;18.892;2022-08-19T08:36:53;57639.41;;;-145.38;48.17
61939;BME280;47897;50.322;18.892;2022-08-19T08:39:20;57644.51;;;-145.38;48.37
61939;BME280;47897;50.322;18.892;2022-08-19T08:44:32;57636.01;;;-145.38;47.23
61939;BME280;47897;50.322;18.892;2022-08-19T08:47:10;57629.64;;;-145.38;47.09
61939;BME280;47897;50.322;18.892;2022-08-19T08:50:20;57644.09;;;-145.38;46.51
61939;BME280;47897;50.322;18.892;2022-08-19T08:52:52;57631.77;;;-145.38;46.04
61939;BME280;47897;50.322;18.892;2022-08-19T08:55:26;57636.44;;;-145.38;45.95
61939;BME280;47897;50.322;18.892;2022-08-19T08:58:09;57633.89;;;-145.38;45.51
61939;BME280;47897;50.322;18.892;2022-08-19T09:00:47;57619.86;;;-145.38;45.14
61939;BME280;47897;50.322;18.892;2022-08-19T09:03:23;57635.59;;;-145.38;45.03
61939;BME280;47897;50.322;18.892;2022-08-19T09:06:03;57635.16;;;-145.38;44.51
61939;BME280;47897;50.322;18.892;2022-08-19T09:17:10;57629.21;;;-145.38;44.11
61939;BME280;47897;50.322;18.892;2022-08-19T09:22:22;57615.19;;;-145.38;43.68
61939;BME280;47897;50.322;18.892;2022-08-19T09:24:51;57613.49;;;-145.38;43.80
61939;BME280;47897;50.322;18.892;2022-08-19T09:27:23;57621.99;;;-145.38;44.11
61939;BME280;47897;50.322;18.892;2022-08-19T09:29:52;57610.95;;;-145.38;43.53
61939;BME280;47897;50.322;18.892;2022-08-19T09:32:21;57609.67;;;-145.38;42.98
61939;BME280;47897;50.322;18.892;2022-08-19T09:34:49;57619.44;;;-145.38;43.39
61939;BME280;47897;50.322;18.892;2022-08-19T09:37:16;57607.97;;;-145.38;43.50
61939;BME280;47897;50.322;18.892;2022-08-19T09:39:43;57632.61;;;-145.38;43.03
61939;BME280;47897;50.322;18.892;2022-08-19T09:42:10;57617.74;;;-145.38;43.49
61939;BME280;47897;50.322;18.892;2022-08-19T09:44:41;57624.96;;;-145.38;43.49
61939;BME280;47897;50.322;18.892;2022-08-19T09:47:13;57622.41;;;-145.38;42.60
61939;BME280;47897;50.322;18.892;2022-08-19T09:49:40;57616.89;;;-145.38;42.95
61939;BME280;47897;50.322;18.892;2022-08-19T09:52:11;57627.51;;;-145.38;43.07
61939;BME280;47897;50.322;18.892;2022-08-19T09:54:38;57618.16;;;-145.38;42.65
61939;BME280;47897;50.322;18.892;2022-08-19T09:57:05;57612.22;;;-145.38;42.22
61939;BME280;47897;50.322;18.892;2022-08-19T09:59:34;57614.77;;;-145.38;42.57
61939;BME280;47897;50.322;18.892;2022-08-19T10:02:05;57624.54;;;-145.38;42.44
61939;BME280;47897;50.322;18.892;2022-08-19T10:04:32;57621.57;;;-145.38;42.57
61939;BME280;47897;50.322;18.892;2022-08-19T10:07:18;57616.04;;;-145.38;42.74
61939;BME280;47897;50.322;18.892;2022-08-19T10:09:45;57617.74;;;-145.38;42.31
61939;BME280;47897;50.322;18.892;2022-08-19T10:12:12;57616.46;;;-145.38;42.28
61939;BME280;47897;50.322;18.892;2022-08-19T10:14:41;57609.66;;;-145.38;41.97
61939;BME280;47897;50.322;18.892;2022-08-19T10:17:08;57607.97;;;-145.38;41.75
61939;BME280;47897;50.322;18.892;2022-08-19T10:19:35;57614.76;;;-145.38;41.23
61939;BME280;47897;50.322;18.892;2022-08-19T10:22:04;57604.14;;;-145.38;41.30
61939;BME280;47897;50.322;18.892;2022-08-19T10:24:31;57611.36;;;-145.38;41.11
61939;BME280;47897;50.322;18.892;2022-08-19T10:27:00;57617.74;;;-145.38;40.87
61939;BME280;47897;50.322;18.892;2022-08-19T10:29:30;57616.47;;;-145.38;40.59
61939;BME280;47897;50.322;18.892;2022-08-19T10:32:02;57595.64;;;-145.38;40.20
61939;BME280;47897;50.322;18.892;2022-08-19T10:34:31;57618.59;;;-145.38;40.37
61939;BME280;47897;50.322;18.892;2022-08-19T10:36:58;57603.72;;;-145.38;40.54
61939;BME280;47897;50.322;18.892;2022-08-19T10:39:30;57599.89;;;-145.38;40.45
61939;BME280;47897;50.322;18.892;2022-08-19T10:41:57;57603.30;;;-145.38;39.62
61939;BME280;47897;50.322;18.892;2022-08-19T10:44:25;57610.09;;;-145.38;39.42
61939;BME280;47897;50.322;18.892;2022-08-19T10:46:52;57619.45;;;-145.38;39.68
61939;BME280;47897;50.322;18.892;2022-08-19T10:49:19;57616.89;;;-145.38;40.01
61939;BME280;47897;50.322;18.892;2022-08-19T10:51:46;57611.36;;;-145.38;39.25
61939;BME280;47897;50.322;18.892;2022-08-19T10:54:32;57593.95;;;-145.38;38.78
61939;BME280;47897;50.322;18.892;2022-08-19T10:57:18;57616.89;;;-145.38;38.65
61939;BME280;47897;50.322;18.892;2022-08-19T10:59:45;57611.79;;;-145.38;38.31
61939;BME280;47897;50.322;18.892;2022-08-19T11:02:12;57600.32;;;-145.38;37.98
61939;BME280;47897;50.322;18.892;2022-08-19T11:04:40;57604.57;;;-145.38;37.70
61939;BME280;47897;50.322;18.892;2022-08-19T11:07:08;57605.84;;;-145.38;37.08
61939;BME280;47897;50.322;18.892;2022-08-19T11:09:41;57593.52;;;-145.38;36.92
61939;BME280;47897;50.322;18.892;2022-08-19T11:12:09;57607.12;;;-145.38;36.61
61939;BME280;47897;50.322;18.892;2022-08-19T11:14:36;57615.62;;;-145.38;36.86
61939;BME280;47897;50.322;18.892;2022-08-19T11:17:05;57607.12;;;-145.38;37.39
61939;BME280;47897;50.322;18.892;2022-08-19T11:19:33;57619.02;;;-145.38;37.34
61939;BME280;47897;50.322;18.892;2022-08-19T11:22:00;57597.35;;;-145.38;37.52
61939;BME280;47897;50.322;18.892;2022-08-19T11:24:31;57600.32;;;-145.38;37.86
61939;BME280;47897;50.322;18.892;2022-08-19T11:27:05;57603.72;;;-145.38;37.80
61939;BME280;47897;50.322;18.892;2022-08-19T11:29:33;57599.89;;;-145.38;38.10
61939;BME280;47897;50.322;18.892;2022-08-19T11:32:10;57599.47;;;-145.38;38.05
61939;BME280;47897;50.322;18.892;2022-08-19T11:34:37;57602.45;;;-145.38;38.50
61939;BME280;47897;50.322;18.892;2022-08-19T11:37:05;57599.89;;;-145.38;38.41
61939;BME280;47897;50.322;18.892;2022-08-19T11:39:34;57596.07;;;-145.38;38.45
61939;BME280;47897;50.322;18.892;2022-08-19T11:42:03;57580.77;;;-145.38;38.45
61939;BME280;47897;50.322;18.892;2022-08-19T11:44:50;57605.42;;;-145.38;38.16
61939;BME280;47897;50.322;18.892;2022-08-19T11:47:18;57604.56;;;-145.38;36.66
61939;BME280;47897;50.322;18.892;2022-08-19T11:49:46;57601.59;;;-145.38;36.42
61939;BME280;47897;50.322;18.892;2022-08-19T11:52:13;57596.49;;;-145.38;35.89
61939;BME280;47897;50.322;18.892;2022-08-19T11:54:40;57596.07;;;-145.38;35.82
61939;BME280;47897;50.322;18.892;2022-08-19T11:57:07;57594.37;;;-145.38;35.58
61939;BME280;47897;50.322;18.892;2022-08-19T11:59:34;57590.12;;;-145.38;35.38
61939;BME280;47897;50.322;18.892;2022-08-19T12:02:01;57602.88;;;-145.38;35.06
61939;BME280;47897;50.322;18.892;2022-08-19T12:04:28;57585.87;;;-145.38;35.16
61939;BME280;47897;50.322;18.892;2022-08-19T12:06:55;57588.43;;;-145.38;35.14
61939;BME280;47897;50.322;18.892;2022-08-19T12:09:22;57601.18;;;-145.38;35.14
61939;BME280;47897;50.322;18.892;2022-08-19T12:11:49;57595.64;;;-145.38;35.50
61939;BME280;47897;50.322;18.892;2022-08-19T12:14:17;57588.42;;;-145.38;35.63
61939;BME280;47897;50.322;18.892;2022-08-19T12:16:45;57591.82;;;-145.38;35.64
61939;BME280;47897;50.322;18.892;2022-08-19T12:19:13;57594.79;;;-145.38;35.91
61939;BME280;47897;50.322;18.892;2022-08-19T12:21:40;57602.02;;;-145.38;35.69
61939;BME280;47897;50.322;18.892;2022-08-19T12:24:07;57599.89;;;-145.38;36.08
61939;BME280;47897;50.322;18.892;2022-08-19T12:26:35;57582.48;;;-145.38;35.95
61939;BME280;47897;50.322;18.892;2022-08-19T12:29:03;57590.55;;;-145.38;35.86
61939;BME280;47897;50.322;18.892;2022-08-19T12:31:31;57592.67;;;-145.38;36.08
61939;BME280;47897;50.322;18.892;2022-08-19T12:33:59;57597.77;;;-145.38;36.02
61939;BME280;47897;50.322;18.892;2022-08-19T12:36:29;57596.07;;;-145.38;36.01
61939;BME280;47897;50.322;18.892;2022-08-19T12:38:57;57598.20;;;-145.38;35.88
61939;BME280;47897;50.322;18.892;2022-08-19T12:41:25;57582.48;;;-145.38;35.95
61939;BME280;47897;50.322;18.892;2022-08-19T12:43:52;57589.70;;;-145.38;35.66
61939;BME280;47897;50.322;18.892;2022-08-19T12:46:20;57589.70;;;-145.38;36.02
61939;BME280;47897;50.322;18.892;2022-08-19T12:48:47;57602.02;;;-145.38;36.22
61939;BME280;47897;50.322;18.892;2022-08-19T12:51:16;57587.57;;;-145.38;36.20
61939;BME280;47897;50.322;18.892;2022-08-19T12:53:46;57598.62;;;-145.38;36.22
61939;BME280;47897;50.322;18.892;2022-08-19T12:56:14;57612.21;;;-145.38;35.78
61939;BME280;47897;50.322;18.892;2022-08-19T12:58:42;57592.68;;;-145.38;35.51
61939;BME280;47897;50.322;18.892;2022-08-19T13:01:15;57599.47;;;-145.38;35.83
61939;BME280;47897;50.322;18.892;2022-08-19T13:03:45;57588.00;;;-145.38;35.73
61939;BME280;47897;50.322;18.892;2022-08-19T13:06:13;57588.43;;;-145.38;35.78